Sunbeam, Pennsylvania
Current Conditions -  °F | °C
As of 9:06 AM on Thursday 27 Nov 2014 (Local Time) from KHGR Reporting Station
Haze Haze  
Wind Chill: 30°   Ceiling: 2600
Heat Index: 35°   Visibility: 3mi
Dew Point: 32°   Wind: 6mph
Humidity: 89%   Direction: 240°WSW
Pressure: 30.04"   Gusts: NA
Location:  39.9438°N, 77.6827°W
Report Text: KHGR 271406Z 24005KT 3SM BR FEW011 BKN026 OVC055 02/00 A3004 RMK AO2 T00170000 $
Loading
Personal Weather Stations






























Interactive Weather Map New forecast layout! Learn more

10-Day Weather Forecast

Advertisements
Track Severe Weather on mobile